createdAt,value
2022-09-03T00:01:35.008Z,101789.38
2022-09-03T00:05:22.983Z,101784.38
2022-09-03T00:09:32.967Z,101784.53
2022-09-03T00:12:59.085Z,101763.09
2022-09-03T00:16:26.010Z,101759.88
2022-09-03T00:19:54.980Z,101762.50
2022-09-03T00:23:25.960Z,101754.44
2022-09-03T00:26:50.996Z,101745.34
2022-09-03T00:30:17.325Z,101729.03
2022-09-03T00:33:37.995Z,101716.13
2022-09-03T00:37:01.963Z,101724.00
2022-09-03T00:40:41.986Z,101709.84
2022-09-03T00:44:23.003Z,101698.97
2022-09-03T00:48:01.990Z,101693.91
2022-09-03T00:51:51.005Z,101676.28
2022-09-03T00:55:14.975Z,101667.88
2022-09-03T00:58:46.002Z,101664.59
2022-09-03T01:02:41.112Z,101638.69
2022-09-03T01:06:30.997Z,101640.78
2022-09-03T01:10:09.002Z,101635.00
2022-09-03T01:13:51.996Z,101641.34
2022-09-03T01:18:04.011Z,101626.31
2022-09-03T01:21:50.023Z,101623.44
2022-09-03T01:25:40.977Z,101614.88
2022-09-03T01:29:24.012Z,101595.22
2022-09-03T01:32:59.548Z,101598.66
2022-09-03T01:36:21.024Z,101602.16
2022-09-03T01:39:57.066Z,101591.41
2022-09-03T01:43:31.029Z,101584.56
2022-09-03T01:46:59.010Z,101578.84
2022-09-03T01:50:31.029Z,101581.50
2022-09-03T01:54:32.999Z,101557.88
2022-09-03T01:58:14.021Z,101566.84
2022-09-03T02:01:52.074Z,101570.13
2022-09-03T02:05:24.025Z,101556.59
2022-09-03T02:08:47.003Z,101557.03
2022-09-03T02:12:42.047Z,101533.84
2022-09-03T02:16:08.090Z,101541.19
2022-09-03T02:19:32.056Z,101543.91
2022-09-03T02:22:56.034Z,101545.88
2022-09-03T02:26:20.054Z,101553.22
2022-09-03T02:29:43.998Z,101545.81
2022-09-03T02:33:09.008Z,101540.19
2022-09-03T02:36:36.989Z,101540.63
2022-09-03T02:40:02.139Z,101544.69
2022-09-03T02:43:48.965Z,101549.72
2022-09-03T02:47:20.055Z,101555.03
2022-09-03T02:50:45.009Z,101554.38
2022-09-03T02:54:09.009Z,101549.84
2022-09-03T02:57:32.967Z,101562.69
2022-09-03T03:00:57.110Z,101547.88
2022-09-03T03:04:21.007Z,101552.22
2022-09-03T03:07:48.073Z,101545.38
2022-09-03T03:11:13.004Z,101544.97
2022-09-03T03:14:38.062Z,101535.13
2022-09-03T03:18:02.041Z,101540.03
2022-09-03T03:21:28.068Z,101538.97
2022-09-03T03:24:51.040Z,101542.50
2022-09-03T03:28:14.990Z,101535.34
2022-09-03T03:31:39.071Z,101528.81
2022-09-03T03:34:56.614Z,101519.19
2022-09-03T03:38:14.038Z,101514.56
2022-09-03T03:41:40.033Z,101507.88
2022-09-03T03:45:04.110Z,101505.13
2022-09-03T03:48:28.063Z,101501.19
2022-09-03T03:51:52.166Z,101489.78
2022-09-03T03:55:17.035Z,101503.13
2022-09-03T03:58:40.049Z,101487.06
2022-09-03T04:02:04.087Z,101501.59
2022-09-03T04:05:31.796Z,101503.72
2022-09-03T04:09:00.043Z,101496.53
2022-09-03T04:12:27.090Z,101502.06
2022-09-03T04:15:51.999Z,101508.66
2022-09-03T04:19:16.094Z,101515.56
2022-09-03T04:22:40.089Z,101523.63
2022-09-03T04:26:08.030Z,101529.13
2022-09-03T04:29:33.103Z,101522.41
2022-09-03T04:33:04.000Z,101504.03
2022-09-03T04:36:30.105Z,101495.69
2022-09-03T04:39:54.194Z,101479.13
2022-09-03T04:43:19.026Z,101474.56
2022-09-03T04:46:44.092Z,101472.28
2022-09-03T04:50:09.060Z,101466.34
2022-09-03T04:53:33.009Z,101456.69
2022-09-03T04:56:58.068Z,101456.56
2022-09-03T05:00:26.072Z,101460.44
2022-09-03T05:03:50.061Z,101461.53
2022-09-03T05:07:14.035Z,101453.41
2022-09-03T05:10:37.243Z,101456.28
2022-09-03T05:14:05.075Z,101455.00
2022-09-03T05:17:29.072Z,101460.16
2022-09-03T05:20:53.024Z,101463.84
2022-09-03T05:24:17.052Z,101453.91
2022-09-03T05:27:41.046Z,101456.81
2022-09-03T05:31:15.121Z,101453.81
2022-09-03T05:34:38.054Z,101440.91
2022-09-03T05:38:04.113Z,101433.09
2022-09-03T05:41:30.064Z,101422.72
2022-09-03T05:44:54.057Z,101421.34
2022-09-03T05:48:18.100Z,101435.97
2022-09-03T05:51:42.071Z,101433.34
2022-09-03T05:55:06.105Z,101435.34
2022-09-03T05:58:30.074Z,101436.75
2022-09-03T06:02:00.132Z,101448.63
2022-09-03T06:05:27.123Z,101438.31
2022-09-03T06:08:53.105Z,101431.59
2022-09-03T06:12:17.118Z,101433.28
2022-09-03T06:15:41.061Z,101424.22
2022-09-03T06:19:07.127Z,101409.63
2022-09-03T06:22:33.098Z,101372.75
2022-09-03T06:26:00.080Z,101356.97
2022-09-03T06:29:29.061Z,101359.22
2022-09-03T06:33:02.153Z,101360.88
2022-09-03T06:36:28.071Z,101331.06
2022-09-03T06:39:53.155Z,101320.25
2022-09-03T06:43:19.105Z,101278.22
2022-09-03T06:46:43.169Z,101276.91
2022-09-03T06:50:08.129Z,101290.31
2022-09-03T06:53:33.148Z,101341.03
2022-09-03T06:56:57.074Z,101375.25
2022-09-03T07:00:21.124Z,101394.06
2022-09-03T07:03:45.092Z,101398.53
2022-09-03T07:07:10.107Z,101398.97
2022-09-03T07:10:36.101Z,101371.84
2022-09-03T07:14:02.157Z,101354.22
2022-09-03T07:17:26.119Z,101336.88
2022-09-03T07:20:49.115Z,101334.50
2022-09-03T07:24:13.114Z,101336.88
2022-09-03T07:27:36.114Z,101350.38
2022-09-03T07:31:01.102Z,101344.25
2022-09-03T07:34:28.108Z,101341.09
2022-09-03T07:37:53.177Z,101333.72
2022-09-03T07:41:19.308Z,101321.22
2022-09-03T07:44:46.173Z,101304.00
2022-09-03T07:48:10.097Z,101311.38
2022-09-03T07:51:36.139Z,101309.34
2022-09-03T07:55:00.135Z,101307.72
2022-09-03T07:58:23.251Z,101305.63
2022-09-03T08:01:48.095Z,101310.19
2022-09-03T08:05:13.122Z,101325.13
2022-09-03T08:08:37.122Z,101319.03
2022-09-03T08:12:02.142Z,101321.84
2022-09-03T08:15:26.106Z,101334.78
2022-09-03T08:18:51.214Z,101328.19
2022-09-03T08:22:15.097Z,101320.31
2022-09-03T08:25:39.192Z,101328.69
2022-09-03T08:29:04.163Z,101345.94
2022-09-03T08:32:29.107Z,101340.44
2022-09-03T08:35:55.159Z,101339.84
2022-09-03T08:39:21.166Z,101339.03
2022-09-03T08:43:08.917Z,101338.19
2022-09-03T08:46:26.273Z,101334.91
2022-09-03T08:50:00.135Z,101336.19
2022-09-03T08:53:48.193Z,101332.69
2022-09-03T08:57:17.124Z,101326.00
2022-09-03T09:00:53.145Z,101312.72
2022-09-03T09:04:26.169Z,101313.19
2022-09-03T09:08:13.161Z,101318.22
2022-09-03T09:11:56.133Z,101314.69
2022-09-03T09:15:29.180Z,101315.38
2022-09-03T09:19:11.164Z,101312.94
2022-09-03T09:22:47.372Z,101325.38
2022-09-03T09:26:13.159Z,101304.91
2022-09-03T09:29:37.185Z,101323.03
2022-09-03T09:33:01.163Z,101309.44
2022-09-03T09:36:30.142Z,101306.59
2022-09-03T09:39:54.390Z,101316.94
2022-09-03T09:43:33.175Z,101305.53
2022-09-03T09:46:58.185Z,101316.59
2022-09-03T09:50:33.184Z,101302.28
2022-09-03T09:53:58.195Z,101293.25
2022-09-03T09:57:29.176Z,101298.19
2022-09-03T10:00:53.196Z,101282.31
2022-09-03T10:04:32.827Z,101286.31
2022-09-03T10:07:57.185Z,101289.69
2022-09-03T10:11:22.139Z,101290.38
2022-09-03T10:14:56.190Z,101297.53
2022-09-03T10:18:37.148Z,101303.09
2022-09-03T10:22:01.173Z,101286.63
2022-09-03T10:25:25.179Z,101290.63
2022-09-03T10:28:55.883Z,101283.13
2022-09-03T10:32:25.179Z,101293.91
2022-09-03T10:35:56.172Z,101293.31
2022-09-03T10:39:26.197Z,101289.22
2022-09-03T10:43:14.156Z,101279.00
2022-09-03T10:46:42.212Z,101279.56
2022-09-03T10:50:24.323Z,101277.75
2022-09-03T10:54:03.161Z,101265.84
2022-09-03T10:57:45.192Z,101272.81
2022-09-03T11:01:14.244Z,101274.38
2022-09-03T11:04:46.157Z,101278.22
2022-09-03T11:08:32.231Z,101274.00
2022-09-03T11:12:12.190Z,101265.78
2022-09-03T11:16:07.222Z,101269.88
2022-09-03T11:19:38.226Z,101260.97
2022-09-03T11:23:07.198Z,101255.09
2022-09-03T11:26:36.175Z,101258.06
2022-09-03T11:30:23.207Z,101255.38
2022-09-03T11:33:49.215Z,101249.25
2022-09-03T11:37:32.234Z,101241.38
2022-09-03T11:41:09.248Z,101239.56
2022-09-03T11:44:28.952Z,101232.59
2022-09-03T11:47:52.247Z,101235.91
2022-09-03T11:51:17.287Z,101227.38
2022-09-03T11:54:43.229Z,101233.59
2022-09-03T11:58:08.329Z,101232.31
2022-09-03T12:01:36.170Z,101232.75
2022-09-03T12:05:07.269Z,101242.28
2022-09-03T12:09:01.224Z,101239.22
2022-09-03T12:12:36.260Z,101245.34
2022-09-03T12:16:38.193Z,101243.47
2022-09-03T12:20:12.288Z,101247.81
2022-09-03T12:23:48.181Z,101250.88
2022-09-03T12:27:14.256Z,101243.50
2022-09-03T12:30:40.254Z,101248.06
2022-09-03T12:34:09.226Z,101252.88
2022-09-03T12:41:36.323Z,101257.72
2022-09-03T12:44:53.878Z,101254.31
2022-09-03T12:48:24.218Z,101253.88
2022-09-03T12:51:56.341Z,101259.34
2022-09-03T12:55:27.730Z,101256.06
2022-09-03T12:59:07.335Z,101253.34
2022-09-03T13:03:01.234Z,101251.84
2022-09-03T13:06:35.276Z,101260.19
2022-09-03T13:10:02.272Z,101265.66
2022-09-03T13:13:52.224Z,101276.56
2022-09-03T13:17:30.214Z,101270.81
2022-09-03T13:21:03.227Z,101278.75
2022-09-03T13:24:36.227Z,101273.00
2022-09-03T13:28:15.271Z,101277.31
2022-09-03T13:31:51.214Z,101272.47
2022-09-03T13:35:54.304Z,101273.72
2022-09-03T13:39:22.321Z,101266.50
2022-09-03T13:42:53.313Z,101284.53
2022-09-03T13:46:39.851Z,101288.41
2022-09-03T13:50:24.346Z,101282.63
2022-09-03T13:54:13.262Z,101287.00
2022-09-03T13:58:04.322Z,101292.84
2022-09-03T14:01:38.308Z,101288.50
2022-09-03T14:05:22.254Z,101287.47
2022-09-03T14:09:01.308Z,101288.06
2022-09-03T14:12:39.215Z,101286.63
2022-09-03T14:16:20.346Z,101299.25
2022-09-03T14:20:08.269Z,101281.78
2022-09-03T14:24:00.260Z,101288.44
2022-09-03T14:27:24.216Z,101285.00
2022-09-03T14:31:03.265Z,101280.56
2022-09-03T14:34:43.297Z,101280.50
2022-09-03T14:38:28.253Z,101264.56
2022-09-03T14:42:22.243Z,101265.41
2022-09-03T14:46:24.349Z,101254.19
2022-09-03T14:50:25.897Z,101257.88
2022-09-03T14:54:07.326Z,101252.75
2022-09-03T14:57:56.294Z,101255.03
2022-09-03T15:01:38.655Z,101259.66
2022-09-03T15:05:19.284Z,101256.97
2022-09-03T15:09:05.332Z,101245.44
2022-09-03T15:12:30.252Z,101249.69
2022-09-03T15:15:57.285Z,101240.13
2022-09-03T15:19:40.309Z,101238.75
2022-09-03T15:23:21.264Z,101225.00
2022-09-03T15:26:54.283Z,101220.53
2022-09-03T15:30:30.294Z,101227.97
2022-09-03T15:34:28.305Z,101230.19
2022-09-03T15:38:13.287Z,101217.97
2022-09-03T15:41:56.314Z,101224.84
2022-09-03T15:45:43.332Z,101225.84
2022-09-03T15:49:14.489Z,101216.19
2022-09-03T15:52:57.349Z,101223.44
2022-09-03T15:56:36.296Z,101224.22
2022-09-03T16:00:22.322Z,101218.41
2022-09-03T16:04:18.343Z,101217.16
2022-09-03T16:07:52.314Z,101230.47
2022-09-03T16:11:25.269Z,101227.97
2022-09-03T16:14:56.293Z,101232.50
2022-09-03T16:18:25.448Z,101236.88
2022-09-03T16:22:11.302Z,101244.31
2022-09-03T16:25:50.341Z,101243.50
2022-09-03T16:29:23.304Z,101238.84
2022-09-03T16:32:59.314Z,101236.59
2022-09-03T16:36:34.280Z,101227.25
2022-09-03T16:40:32.363Z,101230.41
2022-09-03T16:44:02.319Z,101236.00
2022-09-03T16:47:42.315Z,101253.25
2022-09-03T16:51:20.332Z,101250.13
2022-09-03T16:54:56.030Z,101255.78
2022-09-03T16:58:32.372Z,101268.19
2022-09-03T17:02:37.073Z,101267.03
2022-09-03T17:06:34.348Z,101265.13
2022-09-03T17:10:18.313Z,101254.13
2022-09-03T17:13:57.324Z,101258.59
2022-09-03T17:17:39.310Z,101261.03
2022-09-03T17:21:18.320Z,101259.97
2022-09-03T17:24:50.321Z,101253.00
2022-09-03T17:28:33.364Z,101253.28
2022-09-03T17:32:03.345Z,101255.69
2022-09-03T17:35:55.336Z,101265.00
2022-09-03T17:39:39.423Z,101266.00
2022-09-03T17:43:15.344Z,101263.88
2022-09-03T17:47:06.371Z,101264.75
2022-09-03T17:50:38.383Z,101270.16
2022-09-03T17:54:05.918Z,101268.91
2022-09-03T17:57:27.348Z,101282.75
2022-09-03T18:01:14.344Z,101284.09
2022-09-03T18:04:44.341Z,101281.97
2022-09-03T18:08:17.304Z,101291.13
2022-09-03T18:11:49.336Z,101285.19
2022-09-03T18:15:51.397Z,101289.66
2022-09-03T18:20:04.384Z,101289.84
2022-09-03T18:24:05.322Z,101287.72
2022-09-03T18:28:12.351Z,101290.56
2022-09-03T18:31:54.356Z,101292.56
2022-09-03T18:35:36.371Z,101288.78
2022-09-03T18:39:18.393Z,101279.72
2022-09-03T18:43:06.385Z,101282.44
2022-09-03T18:51:31.367Z,101278.88
2022-09-03T18:55:29.372Z,101273.53
2022-09-03T18:59:21.228Z,101277.88
2022-09-03T19:03:21.421Z,101277.66
2022-09-03T19:07:38.324Z,101278.91
2022-09-03T19:11:28.398Z,101292.06
2022-09-03T19:15:43.360Z,101304.25
2022-09-03T19:19:37.403Z,101296.72
2022-09-03T19:23:19.394Z,101307.47
2022-09-03T19:27:47.419Z,101300.31
2022-09-03T19:31:57.408Z,101302.09
2022-09-03T19:35:52.391Z,101295.78
2022-09-03T19:39:55.519Z,101301.47
2022-09-03T19:43:42.393Z,101303.81
2022-09-03T19:47:25.432Z,101309.63
2022-09-03T19:51:12.389Z,101310.72
2022-09-03T19:54:57.440Z,101307.47
2022-09-03T19:58:43.532Z,101315.03
2022-09-03T20:02:26.468Z,101302.34
2022-09-03T20:06:11.385Z,101307.91
2022-09-03T20:09:56.392Z,101309.28
2022-09-03T20:13:31.451Z,101306.97
2022-09-03T20:17:00.357Z,101307.03
2022-09-03T20:20:37.403Z,101309.59
2022-09-03T20:24:36.455Z,101308.22
2022-09-03T20:28:11.459Z,101311.66
2022-09-03T20:31:40.304Z,101311.78
2022-09-03T20:35:31.449Z,101321.88
2022-09-03T20:39:19.463Z,101325.50
2022-09-03T20:43:14.372Z,101314.50
2022-09-03T20:46:59.402Z,101314.34
2022-09-03T20:50:53.565Z,101313.78
2022-09-03T20:54:42.663Z,101322.69
2022-09-03T20:58:28.391Z,101329.25
2022-09-03T21:02:17.418Z,101331.97
2022-09-03T21:05:46.464Z,101334.28
2022-09-03T21:09:22.410Z,101332.81
2022-09-03T21:13:27.484Z,101330.75
2022-09-03T21:17:03.415Z,101321.09
2022-09-03T21:20:34.441Z,101321.19
2022-09-03T21:24:02.365Z,101326.13
2022-09-03T21:27:33.416Z,101324.41
2022-09-03T21:31:00.470Z,101330.78
2022-09-03T21:34:36.529Z,101327.06
2022-09-03T21:38:37.471Z,101319.38
2022-09-03T21:42:36.438Z,101315.03
2022-09-03T21:46:28.521Z,101324.34
2022-09-03T21:50:19.422Z,101324.91
2022-09-03T21:53:53.426Z,101322.44
2022-09-03T21:57:44.404Z,101327.16
2022-09-03T22:01:14.934Z,101318.19
2022-09-03T22:04:41.450Z,101318.56
2022-09-03T22:08:27.486Z,101313.06
2022-09-03T22:12:21.575Z,101312.84
2022-09-03T22:15:46.472Z,101306.06
2022-09-03T22:19:11.515Z,101296.63
2022-09-03T22:23:06.430Z,101294.13
2022-09-03T22:26:59.425Z,101309.88
2022-09-03T22:30:23.426Z,101304.75
2022-09-03T22:34:11.426Z,101302.41
2022-09-03T22:38:02.451Z,101301.28
2022-09-03T22:41:32.403Z,101296.13
2022-09-03T22:45:08.449Z,101296.25
2022-09-03T22:48:52.464Z,101289.84
2022-09-03T22:52:15.496Z,101293.94
2022-09-03T22:55:43.516Z,101286.28
2022-09-03T22:59:18.422Z,101272.84
2022-09-03T23:02:43.467Z,101275.56
2022-09-03T23:06:17.520Z,101281.94
2022-09-03T23:09:45.505Z,101269.69
2022-09-03T23:13:22.420Z,101256.53
2022-09-03T23:16:59.544Z,101262.63
2022-09-03T23:20:33.458Z,101263.13
2022-09-03T23:24:02.502Z,101265.28
2022-09-03T23:27:33.424Z,101270.69
2022-09-03T23:30:57.464Z,101263.47
2022-09-03T23:34:24.495Z,101263.63
2022-09-03T23:38:05.471Z,101267.34
2022-09-03T23:41:35.514Z,101245.97
2022-09-03T23:45:18.535Z,101248.28
2022-09-03T23:49:16.477Z,101238.47
2022-09-03T23:53:07.475Z,101232.47
2022-09-03T23:56:54.515Z,101234.88
